createdAt,value
2018-08-28T00:00:26.674Z,97.90
2018-08-28T00:01:26.674Z,98.10
2018-08-28T00:02:26.673Z,98.10
2018-08-28T00:03:26.675Z,98.00
2018-08-28T00:04:26.674Z,98.00
2018-08-28T00:05:26.673Z,98.10
2018-08-28T00:06:26.674Z,97.52
2018-08-28T00:07:26.673Z,97.52
2018-08-28T00:08:26.672Z,98.10
2018-08-28T00:09:26.671Z,98.57
2018-08-28T00:10:26.675Z,97.80
2018-08-28T00:11:26.668Z,98.67
2018-08-28T00:12:26.671Z,97.80
2018-08-28T00:13:26.670Z,98.57
2018-08-28T00:14:26.669Z,98.47
2018-08-28T00:15:26.666Z,98.28
2018-08-28T00:16:26.670Z,98.19
2018-08-28T00:17:26.666Z,98.38
2018-08-28T00:18:26.667Z,98.38
2018-08-28T00:19:26.666Z,98.47
2018-08-28T00:20:26.670Z,98.67
2018-08-28T00:21:26.663Z,98.47
2018-08-28T00:22:26.667Z,98.38
2018-08-28T00:23:26.663Z,98.96
2018-08-28T00:24:26.671Z,98.86
2018-08-28T00:25:26.663Z,98.19
2018-08-28T00:26:26.662Z,98.38
2018-08-28T00:27:26.662Z,98.86
2018-08-28T00:28:26.663Z,98.19
2018-08-28T00:29:26.661Z,98.86
2018-08-28T00:30:26.663Z,99.05
2018-08-28T00:31:26.661Z,98.57
2018-08-28T00:32:26.660Z,98.86
2018-08-28T00:33:26.660Z,98.67
2018-08-28T00:34:26.658Z,98.47
2018-08-28T00:35:26.663Z,98.76
2018-08-28T00:36:26.660Z,98.96
2018-08-28T00:37:26.658Z,99.15
2018-08-28T00:38:26.661Z,98.76
2018-08-28T00:39:26.659Z,98.96
2018-08-28T00:40:26.668Z,98.96
2018-08-28T00:41:26.654Z,99.91
2018-08-28T00:42:26.653Z,99.63
2018-08-28T00:43:26.653Z,99.91
2018-08-28T00:44:26.655Z,99.15
2018-08-28T00:45:26.653Z,99.99
2018-08-28T00:46:26.653Z,99.99
2018-08-28T00:47:26.652Z,99.99
2018-08-28T00:48:26.652Z,99.99
2018-08-28T00:49:26.651Z,99.91
2018-08-28T00:50:26.652Z,99.91
2018-08-28T00:51:26.653Z,99.15
2018-08-28T00:52:26.720Z,99.91
2018-08-28T00:53:26.647Z,99.91
2018-08-28T00:54:26.650Z,99.82
2018-08-28T00:55:26.649Z,99.91
2018-08-28T00:56:26.649Z,99.91
2018-08-28T00:57:26.644Z,99.53
2018-08-28T00:58:26.644Z,99.72
2018-08-28T00:59:26.646Z,99.63
2018-08-28T01:00:26.646Z,99.63
2018-08-28T01:01:26.644Z,99.24
2018-08-28T01:02:26.641Z,99.53
2018-08-28T01:03:26.643Z,99.53
2018-08-28T01:04:26.643Z,98.96
2018-08-28T01:05:26.642Z,99.24
2018-08-28T01:06:26.642Z,99.43
2018-08-28T01:07:26.640Z,99.63
2018-08-28T01:08:26.641Z,98.96
2018-08-28T01:09:26.641Z,99.34
2018-08-28T01:10:26.640Z,99.43
2018-08-28T01:11:26.639Z,99.43
2018-08-28T01:12:26.639Z,99.34
2018-08-28T01:13:26.638Z,99.53
2018-08-28T01:14:26.649Z,99.34
2018-08-28T01:15:26.638Z,99.63
2018-08-28T01:16:26.635Z,99.63
2018-08-28T01:17:26.640Z,99.63
2018-08-28T01:18:26.636Z,99.72
2018-08-28T01:19:26.637Z,99.63
2018-08-28T01:20:26.638Z,99.53
2018-08-28T01:21:26.634Z,99.15
2018-08-28T01:22:26.633Z,99.53
2018-08-28T01:23:26.635Z,99.82
2018-08-28T01:24:26.634Z,99.34
2018-08-28T01:25:26.635Z,99.63
2018-08-28T01:26:26.631Z,99.63
2018-08-28T01:27:26.631Z,99.99
2018-08-28T01:28:26.632Z,99.99
2018-08-28T01:29:26.631Z,99.91
2018-08-28T01:30:26.631Z,99.99
2018-08-28T01:31:26.632Z,99.99
2018-08-28T01:32:26.632Z,99.99
2018-08-28T01:33:26.628Z,99.99
2018-08-28T01:34:26.628Z,99.99
2018-08-28T01:35:26.629Z,99.99
2018-08-28T01:36:26.628Z,99.99
2018-08-28T01:37:26.627Z,99.99
2018-08-28T01:38:26.627Z,99.99
2018-08-28T01:39:26.625Z,99.99
2018-08-28T01:40:26.629Z,99.99
2018-08-28T01:41:26.625Z,99.99
2018-08-28T01:42:26.623Z,99.99
2018-08-28T01:43:26.624Z,99.99
2018-08-28T01:44:26.624Z,99.91
2018-08-28T01:45:26.623Z,99.99
2018-08-28T01:46:26.624Z,99.99
2018-08-28T01:47:26.622Z,99.99
2018-08-28T01:48:26.623Z,99.99
2018-08-28T01:49:26.621Z,99.99
2018-08-28T01:50:26.620Z,99.99
2018-08-28T01:51:26.621Z,99.99
2018-08-28T01:52:26.619Z,99.99
2018-08-28T01:53:26.619Z,99.99
2018-08-28T01:54:26.617Z,99.99
2018-08-28T01:55:26.620Z,99.99
2018-08-28T01:56:26.625Z,99.99
2018-08-28T01:57:26.618Z,99.99
2018-08-28T01:58:26.615Z,99.99
2018-08-28T01:59:26.615Z,99.99
2018-08-28T02:00:26.616Z,99.99
2018-08-28T02:01:26.612Z,99.99
2018-08-28T02:02:26.613Z,99.99
2018-08-28T02:03:26.614Z,99.99
2018-08-28T02:04:26.613Z,99.99
2018-08-28T02:05:26.616Z,99.99
2018-08-28T02:06:26.613Z,99.99
2018-08-28T02:07:26.611Z,99.99
2018-08-28T02:08:26.614Z,99.99
2018-08-28T02:09:26.609Z,99.99
2018-08-28T02:10:26.612Z,99.99
2018-08-28T02:11:26.613Z,99.99
2018-08-28T02:12:26.608Z,99.99
2018-08-28T02:13:26.605Z,99.99
2018-08-28T02:14:26.605Z,99.99
2018-08-28T02:15:26.602Z,99.99
2018-08-28T02:16:26.604Z,99.99
2018-08-28T02:17:26.605Z,99.99
2018-08-28T02:18:26.602Z,99.99
2018-08-28T02:19:26.615Z,99.99
2018-08-28T02:20:26.601Z,99.99
2018-08-28T02:21:26.602Z,99.99
2018-08-28T02:22:26.601Z,99.99
2018-08-28T02:23:26.600Z,99.99
2018-08-28T02:24:26.604Z,99.99
2018-08-28T02:25:26.602Z,99.99
2018-08-28T02:26:26.599Z,99.99
2018-08-28T02:27:26.597Z,99.99
2018-08-28T02:28:26.594Z,99.99
2018-08-28T02:29:26.594Z,99.99
2018-08-28T02:30:26.596Z,99.99
2018-08-28T02:31:26.595Z,99.99
2018-08-28T02:32:26.595Z,99.99
2018-08-28T02:33:26.638Z,99.99
2018-08-28T02:34:26.594Z,99.99
2018-08-28T02:35:26.592Z,99.99
2018-08-28T02:36:26.594Z,99.99
2018-08-28T02:37:26.591Z,99.99
2018-08-28T02:38:26.589Z,99.99
2018-08-28T02:39:26.588Z,99.99
2018-08-28T02:40:26.593Z,99.99
2018-08-28T02:41:26.590Z,99.99
2018-08-28T02:42:26.587Z,99.99
2018-08-28T02:43:26.588Z,99.99
2018-08-28T02:44:26.591Z,99.99
2018-08-28T02:45:26.588Z,99.99
2018-08-28T02:46:26.582Z,99.99
2018-08-28T02:47:26.590Z,99.99
2018-08-28T02:48:26.584Z,99.99
2018-08-28T02:49:26.583Z,99.99
2018-08-28T02:50:26.582Z,99.99
2018-08-28T02:51:26.592Z,99.99
2018-08-28T02:52:26.590Z,99.99
2018-08-28T02:53:26.575Z,99.99
2018-08-28T02:54:26.582Z,99.99
2018-08-28T02:55:26.578Z,99.99
2018-08-28T02:56:26.575Z,99.99
2018-08-28T02:57:26.581Z,99.99
2018-08-28T02:58:26.576Z,99.99
2018-08-28T02:59:26.580Z,99.99
2018-08-28T03:00:26.580Z,99.99
2018-08-28T03:01:26.571Z,99.99
2018-08-28T03:02:26.577Z,99.99
2018-08-28T03:03:26.573Z,99.99
2018-08-28T03:04:26.569Z,99.99
2018-08-28T03:05:26.576Z,99.99
2018-08-28T03:06:26.571Z,99.99
2018-08-28T03:07:26.569Z,99.99
2018-08-28T03:08:26.573Z,99.99
2018-08-28T03:09:26.569Z,99.99
2018-08-28T03:10:26.567Z,99.99
2018-08-28T03:11:26.636Z,99.99
2018-08-28T03:12:26.567Z,99.99
2018-08-28T03:13:26.566Z,99.99
2018-08-28T03:14:26.564Z,99.99
2018-08-28T03:15:26.612Z,99.99
2018-08-28T03:16:26.564Z,99.99
2018-08-28T03:17:26.562Z,99.99
2018-08-28T03:18:26.557Z,99.99
2018-08-28T03:19:26.560Z,99.99
2018-08-28T03:20:26.563Z,99.99
2018-08-28T03:21:26.562Z,99.99
2018-08-28T03:22:26.559Z,99.99
2018-08-28T03:23:26.558Z,99.99
2018-08-28T03:24:26.559Z,99.63
2018-08-28T03:25:26.557Z,99.63
2018-08-28T03:26:26.555Z,99.82
2018-08-28T03:27:26.558Z,99.53
2018-08-28T03:28:26.555Z,99.34
2018-08-28T03:29:26.555Z,99.53
2018-08-28T03:30:26.557Z,99.43
2018-08-28T03:31:26.553Z,98.86
2018-08-28T03:32:26.553Z,99.43
2018-08-28T03:33:26.558Z,99.24
2018-08-28T03:34:26.551Z,98.86
2018-08-28T03:35:26.551Z,99.05
2018-08-28T03:36:26.549Z,98.38
2018-08-28T03:37:26.549Z,98.76
2018-08-28T03:38:26.547Z,99.05
2018-08-28T03:39:26.550Z,98.86
2018-08-28T03:40:26.547Z,99.15
2018-08-28T03:41:26.545Z,99.53
2018-08-28T03:42:26.540Z,99.43
2018-08-28T03:43:26.543Z,99.43
2018-08-28T03:44:26.549Z,99.24
2018-08-28T03:45:26.543Z,98.86
2018-08-28T03:46:26.542Z,98.86
2018-08-28T03:47:26.540Z,98.10
2018-08-28T03:48:26.541Z,98.47
2018-08-28T03:49:26.542Z,98.19
2018-08-28T03:50:26.547Z,98.10
2018-08-28T03:51:26.541Z,98.28
2018-08-28T03:52:26.540Z,98.10
2018-08-28T03:53:26.535Z,98.10
2018-08-28T03:54:26.535Z,97.90
2018-08-28T03:55:26.608Z,98.57
2018-08-28T03:56:26.534Z,98.00
2018-08-28T03:57:26.536Z,98.10
2018-08-28T03:58:26.533Z,97.71
2018-08-28T03:59:26.531Z,98.28
2018-08-28T04:00:26.529Z,98.19
2018-08-28T04:01:26.530Z,98.19
2018-08-28T04:02:26.531Z,98.57
2018-08-28T04:03:26.526Z,98.19
2018-08-28T04:04:26.526Z,97.90
2018-08-28T04:05:26.528Z,98.19
2018-08-28T04:06:26.530Z,98.19
2018-08-28T04:07:26.525Z,98.28
2018-08-28T04:08:26.525Z,98.47
2018-08-28T04:09:26.523Z,98.00
2018-08-28T04:10:26.524Z,98.10
2018-08-28T04:11:26.520Z,98.05
2018-08-28T04:12:26.520Z,98.10
2018-08-28T04:13:26.537Z,98.38
2018-08-28T04:14:26.517Z,98.10
2018-08-28T04:15:26.527Z,98.57
2018-08-28T04:16:26.518Z,98.57
2018-08-28T04:17:26.515Z,97.90
2018-08-28T04:18:26.514Z,98.38
2018-08-28T04:19:26.516Z,98.47
2018-08-28T04:20:26.514Z,98.71
2018-08-28T04:21:26.517Z,98.10
2018-08-28T04:22:26.518Z,98.57
2018-08-28T04:23:26.512Z,98.81
2018-08-28T04:24:26.510Z,99.10
2018-08-28T04:25:26.508Z,98.91
2018-08-28T04:26:26.511Z,99.29
2018-08-28T04:27:26.510Z,98.71
2018-08-28T04:28:26.507Z,98.52
2018-08-28T04:29:26.505Z,98.10
2018-08-28T04:30:26.545Z,98.52
2018-08-28T04:31:26.504Z,98.52
2018-08-28T04:32:26.506Z,98.00
2018-08-28T04:33:26.504Z,98.05
2018-08-28T04:34:26.503Z,98.14
2018-08-28T04:35:26.502Z,97.66
2018-08-28T04:36:26.497Z,98.10
2018-08-28T04:37:26.499Z,98.14
2018-08-28T04:38:26.498Z,98.19
2018-08-28T04:39:26.495Z,98.28
2018-08-28T04:40:26.498Z,98.10
2018-08-28T04:41:26.499Z,98.10
2018-08-28T04:42:26.493Z,98.10
2018-08-28T04:43:26.494Z,97.85
2018-08-28T04:44:26.496Z,98.62
2018-08-28T04:45:26.491Z,97.85
2018-08-28T04:46:26.493Z,98.33
2018-08-28T04:47:26.493Z,98.67
2018-08-28T04:48:26.539Z,97.80
2018-08-28T04:49:26.488Z,98.38
2018-08-28T04:50:26.493Z,98.24
2018-08-28T04:51:26.488Z,97.61
2018-08-28T04:52:26.489Z,97.90
2018-08-28T04:53:26.487Z,97.42
2018-08-28T04:54:26.483Z,98.47
2018-08-28T04:55:26.484Z,98.57
2018-08-28T04:56:26.484Z,98.00
2018-08-28T04:57:26.484Z,97.90
2018-08-28T04:58:26.482Z,97.90
2018-08-28T04:59:26.485Z,97.33
2018-08-28T05:00:26.481Z,97.33
2018-08-28T05:01:26.480Z,97.23
2018-08-28T05:02:26.481Z,97.14
2018-08-28T05:03:26.478Z,96.56
2018-08-28T05:04:26.482Z,96.84
2018-08-28T05:05:26.476Z,97.04
2018-08-28T05:06:26.478Z,96.66
2018-08-28T05:07:26.474Z,96.75
2018-08-28T05:08:26.474Z,96.75
2018-08-28T05:09:26.473Z,96.94
2018-08-28T05:10:26.470Z,96.66
2018-08-28T05:11:26.471Z,96.47
2018-08-28T05:12:26.469Z,95.98
2018-08-28T05:13:26.471Z,96.18
2018-08-28T05:14:26.469Z,96.18
2018-08-28T05:15:26.468Z,96.75
2018-08-28T05:16:26.470Z,96.47
2018-08-28T05:17:26.464Z,96.18
2018-08-28T05:18:26.466Z,96.27
2018-08-28T05:19:26.625Z,95.70
2018-08-28T05:20:26.464Z,95.79
2018-08-28T05:21:26.464Z,95.60
2018-08-28T05:22:26.471Z,95.51
2018-08-28T05:23:26.463Z,95.89
2018-08-28T05:24:26.462Z,95.22
2018-08-28T05:25:26.461Z,95.22
2018-08-28T05:26:26.461Z,95.36
2018-08-28T05:27:26.460Z,94.98
2018-08-28T05:28:26.462Z,94.79
2018-08-28T05:29:26.467Z,94.69
2018-08-28T05:30:26.496Z,93.93
2018-08-28T05:31:26.458Z,94.59
2018-08-28T05:32:26.459Z,94.21
2018-08-28T05:33:26.456Z,93.63
2018-08-28T05:34:26.457Z,93.73
2018-08-28T05:35:26.456Z,93.54
2018-08-28T05:36:26.456Z,93.21
2018-08-28T05:37:26.455Z,91.81
2018-08-28T05:38:26.454Z,90.95
2018-08-28T05:39:26.457Z,89.36
2018-08-28T05:40:26.452Z,88.25
2018-08-28T05:41:26.451Z,86.81
2018-08-28T05:42:26.450Z,86.18
2018-08-28T05:43:26.452Z,84.64
2018-08-28T05:44:26.450Z,83.34
2018-08-28T05:45:26.450Z,82.92
2018-08-28T05:46:26.448Z,82.96
2018-08-28T05:47:26.457Z,82.04
2018-08-28T05:48:26.450Z,81.07
2018-08-28T05:49:26.459Z,80.02
2018-08-28T05:50:26.451Z,79.73
2018-08-28T05:51:26.452Z,80.02
2018-08-28T05:52:26.459Z,79.92
2018-08-28T05:53:26.451Z,79.58
2018-08-28T05:54:26.449Z,78.90
2018-08-28T05:55:26.451Z,78.33
2018-08-28T05:56:26.452Z,78.17
2018-08-28T05:57:26.452Z,77.78
2018-08-28T05:58:26.450Z,77.06
2018-08-28T05:59:26.451Z,75.42
2018-08-28T06:00:26.469Z,75.80
2018-08-28T06:01:26.455Z,75.51
2018-08-28T06:02:26.455Z,75.32
2018-08-28T06:03:26.558Z,75.03
2018-08-28T06:04:26.461Z,74.58
2018-08-28T06:05:26.458Z,73.58
2018-08-28T06:06:26.458Z,74.61
2018-08-28T06:07:26.457Z,74.71
2018-08-28T06:08:26.460Z,74.99
2018-08-28T06:09:26.463Z,74.36
2018-08-28T06:10:26.460Z,74.55
2018-08-28T06:11:26.462Z,73.94
2018-08-28T06:12:26.463Z,73.97
2018-08-28T06:13:26.465Z,73.53
2018-08-28T06:14:26.466Z,72.95
2018-08-28T06:15:26.467Z,71.60
2018-08-28T06:16:26.469Z,71.92
2018-08-28T06:17:26.470Z,71.60
2018-08-28T06:18:26.470Z,72.31
2018-08-28T06:19:26.473Z,70.67
2018-08-28T06:20:26.473Z,69.93
2018-08-28T06:21:26.473Z,69.74
2018-08-28T06:22:26.476Z,69.39
2018-08-28T06:23:26.476Z,68.29
2018-08-28T06:24:26.477Z,69.35
2018-08-28T06:25:26.481Z,69.58
2018-08-28T06:26:26.527Z,68.52
2018-08-28T06:27:26.483Z,67.46
2018-08-28T06:28:26.484Z,66.91
2018-08-28T06:29:26.485Z,67.20
2018-08-28T06:30:26.488Z,66.75
2018-08-28T06:31:26.492Z,66.05
2018-08-28T06:32:26.493Z,66.40
2018-08-28T06:33:26.492Z,66.69
2018-08-28T06:34:26.494Z,66.33
2018-08-28T06:35:26.495Z,65.37
2018-08-28T06:36:26.502Z,66.63
2018-08-28T06:37:26.513Z,64.98
2018-08-28T06:38:26.503Z,65.56
2018-08-28T06:39:26.507Z,65.85
2018-08-28T06:40:26.508Z,65.40
2018-08-28T06:41:26.508Z,65.11
2018-08-28T06:42:26.513Z,64.63
2018-08-28T06:43:26.516Z,64.53
2018-08-28T06:44:26.517Z,64.18
2018-08-28T06:45:26.517Z,63.85
2018-08-28T06:46:26.522Z,64.34
2018-08-28T06:47:26.522Z,65.20
2018-08-28T06:48:26.524Z,64.18
2018-08-28T06:49:26.591Z,62.56
2018-08-28T06:50:26.529Z,61.98
2018-08-28T06:51:26.530Z,61.86
2018-08-28T06:52:26.534Z,61.86
2018-08-28T06:53:26.535Z,62.27
2018-08-28T06:54:26.538Z,61.24
2018-08-28T06:55:26.541Z,60.44
2018-08-28T06:56:26.544Z,61.11
2018-08-28T06:57:26.547Z,61.30
2018-08-28T06:58:26.548Z,61.08
2018-08-28T06:59:26.551Z,61.92
2018-08-28T07:00:26.555Z,61.92
2018-08-28T07:01:26.900Z,62.21
2018-08-28T07:02:27.047Z,62.21
2018-08-28T07:03:26.562Z,63.34
2018-08-28T07:04:26.566Z,63.73
2018-08-28T07:05:26.567Z,63.53
2018-08-28T07:06:26.570Z,63.43
2018-08-28T07:07:26.576Z,62.44
2018-08-28T07:08:26.574Z,60.92
2018-08-28T07:09:26.577Z,60.47
2018-08-28T07:10:26.587Z,60.08
2018-08-28T07:11:26.585Z,59.23
2018-08-28T07:12:26.667Z,58.85
2018-08-28T07:13:26.589Z,58.39
2018-08-28T07:14:26.592Z,57.14
2018-08-28T07:15:26.597Z,57.50
2018-08-28T07:16:26.601Z,57.95
2018-08-28T07:17:26.601Z,58.98
2018-08-28T07:18:26.604Z,59.86
2018-08-28T07:19:26.609Z,60.37
2018-08-28T07:20:26.734Z,58.17
2018-08-28T07:21:26.614Z,58.63
2018-08-28T07:22:26.616Z,59.08
2018-08-28T07:23:26.619Z,59.56
2018-08-28T07:24:26.804Z,59.53
2018-08-28T07:25:26.661Z,60.53
2018-08-28T07:26:26.672Z,60.57
2018-08-28T07:27:26.663Z,60.34
2018-08-28T07:28:26.637Z,58.72
2018-08-28T07:29:26.640Z,58.72
2018-08-28T07:30:26.641Z,58.17
2018-08-28T07:31:26.690Z,57.30
2018-08-28T07:32:26.650Z,57.81
2018-08-28T07:33:26.651Z,56.39
2018-08-28T07:34:26.657Z,55.98
2018-08-28T07:35:26.855Z,56.97
2018-08-28T07:36:26.663Z,55.54
2018-08-28T07:37:26.715Z,54.50
2018-08-28T07:38:26.841Z,53.44
2018-08-28T07:39:26.679Z,52.69
2018-08-28T07:40:26.781Z,52.98
2018-08-28T07:41:26.680Z,53.00
2018-08-28T07:42:26.684Z,52.35
2018-08-28T07:43:26.687Z,51.84
2018-08-28T07:44:26.692Z,52.08
2018-08-28T07:45:26.789Z,54.71
2018-08-28T07:46:26.708Z,58.12
2018-08-28T07:47:26.805Z,60.67
2018-08-28T07:48:26.777Z,61.96
2018-08-28T07:49:26.710Z,63.50
2018-08-28T07:50:26.814Z,64.66
2018-08-28T07:51:26.754Z,64.92
2018-08-28T07:52:26.728Z,65.88
2018-08-28T07:53:26.729Z,66.36
2018-08-28T07:54:26.730Z,66.94
2018-08-28T07:55:26.735Z,67.30
2018-08-28T07:56:26.747Z,68.55
2018-08-28T07:57:26.738Z,67.94
2018-08-28T07:58:26.744Z,68.32
2018-08-28T07:59:26.749Z,68.32
2018-08-28T08:00:26.749Z,68.35
2018-08-28T08:01:26.785Z,67.81
2018-08-28T08:02:26.790Z,68.29
2018-08-28T08:03:26.758Z,69.54
2018-08-28T08:04:26.819Z,69.64
2018-08-28T08:05:26.858Z,69.64
2018-08-28T08:06:26.771Z,70.31
2018-08-28T08:07:26.769Z,70.41
2018-08-28T08:08:26.771Z,70.89
2018-08-28T08:09:26.773Z,70.41
2018-08-28T08:10:26.828Z,70.21
2018-08-28T08:11:26.777Z,70.79
2018-08-28T08:12:26.781Z,69.83
2018-08-28T08:13:26.782Z,69.73
2018-08-28T08:14:26.872Z,69.83
2018-08-28T08:15:26.789Z,70.02
2018-08-28T08:16:26.788Z,70.02
2018-08-28T08:17:26.816Z,71.34
2018-08-28T08:18:26.793Z,71.24
2018-08-28T08:19:26.796Z,71.34
2018-08-28T08:20:26.805Z,71.43
2018-08-28T08:21:26.796Z,70.47
2018-08-28T08:22:26.804Z,70.47
2018-08-28T08:23:26.804Z,70.41
2018-08-28T08:24:26.808Z,70.89
2018-08-28T08:25:26.807Z,71.28
2018-08-28T08:26:26.837Z,69.73
2018-08-28T08:27:26.868Z,70.70
2018-08-28T08:28:26.812Z,70.73
2018-08-28T08:29:26.816Z,69.93
2018-08-28T08:30:26.815Z,70.15
2018-08-28T08:31:26.819Z,70.06
2018-08-28T08:32:26.828Z,70.06
2018-08-28T08:33:26.821Z,70.06
2018-08-28T08:34:26.824Z,70.25
2018-08-28T08:35:26.885Z,70.15
2018-08-28T08:36:26.827Z,69.73
2018-08-28T08:37:26.830Z,70.02
2018-08-28T08:38:26.831Z,70.50
2018-08-28T08:39:26.830Z,71.34
2018-08-28T08:40:26.837Z,71.28
2018-08-28T08:41:26.835Z,70.76
2018-08-28T08:42:26.837Z,71.56
2018-08-28T08:43:26.840Z,70.70
2018-08-28T08:44:26.844Z,70.56
2018-08-28T08:45:26.842Z,69.93
2018-08-28T08:46:26.846Z,69.83
2018-08-28T08:47:26.871Z,70.31
2018-08-28T08:48:26.848Z,70.47
2018-08-28T08:49:26.852Z,70.41
2018-08-28T08:50:26.855Z,70.41
2018-08-28T08:51:26.854Z,70.37
2018-08-28T08:52:26.858Z,70.70
2018-08-28T08:53:26.860Z,70.02
2018-08-28T08:54:26.860Z,69.73
2018-08-28T08:55:26.862Z,69.25
2018-08-28T08:56:26.868Z,69.45
2018-08-28T08:57:26.938Z,69.35
2018-08-28T08:58:26.868Z,70.21
2018-08-28T08:59:26.867Z,70.70
2018-08-28T09:00:26.872Z,70.25
2018-08-28T09:01:26.872Z,68.13
2018-08-28T09:02:26.871Z,69.96
2018-08-28T09:03:26.877Z,69.57
2018-08-28T09:04:27.016Z,67.84
2018-08-28T09:05:26.883Z,67.40
2018-08-28T09:06:26.900Z,69.03
2018-08-28T09:07:26.968Z,68.35
2018-08-28T09:08:26.882Z,66.24
2018-08-28T09:09:27.001Z,65.08
2018-08-28T09:10:26.885Z,64.95
2018-08-28T09:11:26.890Z,66.20
2018-08-28T09:12:26.894Z,67.20
2018-08-28T09:13:26.941Z,67.97
2018-08-28T09:14:26.895Z,67.40
2018-08-28T09:15:27.013Z,66.24
2018-08-28T09:16:26.899Z,66.78
2018-08-28T09:17:26.901Z,67.00
2018-08-28T09:18:26.916Z,65.47
2018-08-28T09:19:26.929Z,67.20
2018-08-28T09:20:26.905Z,66.43
2018-08-28T09:21:26.909Z,65.85
2018-08-28T09:22:26.913Z,66.33
2018-08-28T09:23:26.917Z,65.47
2018-08-28T09:24:26.918Z,65.66
2018-08-28T09:25:26.917Z,65.24
2018-08-28T09:26:26.922Z,65.43
2018-08-28T09:27:26.923Z,66.88
2018-08-28T09:28:26.931Z,66.97
2018-08-28T09:29:26.992Z,67.10
2018-08-28T09:30:26.947Z,66.91
2018-08-28T09:31:26.966Z,67.20
2018-08-28T09:32:26.994Z,67.00
2018-08-28T09:33:26.930Z,66.24
2018-08-28T09:34:26.936Z,65.47
2018-08-28T09:35:27.001Z,64.89
2018-08-28T09:36:26.943Z,64.69
2018-08-28T09:37:26.943Z,63.73
2018-08-28T09:38:26.962Z,64.79
2018-08-28T09:39:27.018Z,65.37
2018-08-28T09:40:26.949Z,65.08
2018-08-28T09:41:26.991Z,64.98
2018-08-28T09:42:26.962Z,64.50
2018-08-28T09:43:26.955Z,64.50
2018-08-28T09:44:26.958Z,65.08
2018-08-28T09:45:26.962Z,63.24
2018-08-28T09:46:26.962Z,62.48
2018-08-28T09:47:26.971Z,62.09
2018-08-28T09:48:27.051Z,62.79
2018-08-28T09:49:26.968Z,61.54
2018-08-28T09:50:27.196Z,62.02
2018-08-28T09:51:26.970Z,61.25
2018-08-28T09:52:26.979Z,61.25
2018-08-28T09:53:26.991Z,62.79
2018-08-28T09:54:26.981Z,61.54
2018-08-28T09:55:26.983Z,60.28
2018-08-28T09:56:27.013Z,60.28
2018-08-28T09:57:26.983Z,59.80
2018-08-28T09:58:26.989Z,59.42
2018-08-28T09:59:26.993Z,60.38
2018-08-28T10:00:26.993Z,61.86
2018-08-28T10:01:26.995Z,59.83
2018-08-28T10:02:27.023Z,59.52
2018-08-28T10:03:27.022Z,59.71
2018-08-28T10:04:27.025Z,60.77
2018-08-28T10:05:27.007Z,60.86
2018-08-28T10:06:27.092Z,60.51
2018-08-28T10:07:27.013Z,58.97
2018-08-28T10:08:27.014Z,56.56
2018-08-28T10:09:27.016Z,57.04
2018-08-28T10:10:27.019Z,57.06
2018-08-28T10:11:27.018Z,57.54
2018-08-28T10:12:27.022Z,58.32
2018-08-28T10:13:27.024Z,57.84
2018-08-28T10:14:27.025Z,56.96
2018-08-28T10:15:27.030Z,56.87
2018-08-28T10:16:27.029Z,57.09
2018-08-28T10:17:27.047Z,57.96
2018-08-28T10:18:27.039Z,56.90
2018-08-28T10:19:27.038Z,57.19
2018-08-28T10:20:27.041Z,56.39
2018-08-28T10:21:27.040Z,56.61
2018-08-28T10:22:27.047Z,56.22
2018-08-28T10:23:27.047Z,56.39
2018-08-28T10:24:27.049Z,57.71
2018-08-28T10:25:27.054Z,58.45
2018-08-28T10:26:27.057Z,58.65
2018-08-28T10:27:27.060Z,60.38
2018-08-28T10:28:27.065Z,60.16
2018-08-28T10:29:27.064Z,60.16
2018-08-28T10:30:27.082Z,59.58
2018-08-28T10:31:27.074Z,59.61
2018-08-28T10:32:27.072Z,60.28
2018-08-28T10:33:27.074Z,60.38
2018-08-28T10:34:27.075Z,60.48
2018-08-28T10:35:27.080Z,60.28
2018-08-28T10:36:27.083Z,59.80
2018-08-28T10:37:27.083Z,59.97
2018-08-28T10:38:27.088Z,60.16
2018-08-28T10:39:27.088Z,61.06
2018-08-28T10:40:27.093Z,61.06
2018-08-28T10:41:27.094Z,60.10
2018-08-28T10:42:27.094Z,58.17
2018-08-28T10:43:27.098Z,56.84
2018-08-28T10:44:27.100Z,57.81
2018-08-28T10:45:27.108Z,57.52
2018-08-28T10:46:27.179Z,55.68
2018-08-28T10:47:27.112Z,55.78
2018-08-28T10:48:27.120Z,56.16
2018-08-28T10:49:27.112Z,56.10
2018-08-28T10:50:27.115Z,55.78
2018-08-28T10:51:27.117Z,56.07
2018-08-28T10:52:27.120Z,57.71
2018-08-28T10:53:27.123Z,56.77
2018-08-28T10:54:27.123Z,56.46
2018-08-28T10:55:27.130Z,55.59
2018-08-28T10:56:27.133Z,55.98
2018-08-28T10:57:27.135Z,57.04
2018-08-28T10:58:27.135Z,57.04
2018-08-28T10:59:27.135Z,56.96
2018-08-28T11:00:27.142Z,56.77
2018-08-28T11:01:27.141Z,55.81
2018-08-28T11:02:27.144Z,54.36
2018-08-28T11:03:27.150Z,55.55
2018-08-28T11:04:27.150Z,55.83
2018-08-28T11:05:27.151Z,55.74
2018-08-28T11:06:27.152Z,55.74
2018-08-28T11:07:27.156Z,53.61
2018-08-28T11:08:27.159Z,53.52
2018-08-28T11:09:27.160Z,53.78
2018-08-28T11:10:27.164Z,54.36
2018-08-28T11:11:27.165Z,53.88
2018-08-28T11:12:27.170Z,54.75
2018-08-28T11:13:27.172Z,54.75
2018-08-28T11:14:27.177Z,54.65
2018-08-28T11:15:27.177Z,54.55
2018-08-28T11:16:27.184Z,54.55
2018-08-28T11:17:27.182Z,54.05
2018-08-28T11:18:27.184Z,53.75
2018-08-28T11:19:27.188Z,54.62
2018-08-28T11:20:27.190Z,54.82
2018-08-28T11:21:27.194Z,55.04
2018-08-28T11:22:27.216Z,54.65
2018-08-28T11:23:27.200Z,54.75
2018-08-28T11:24:27.203Z,54.75
2018-08-28T11:25:27.204Z,55.71
2018-08-28T11:26:27.206Z,55.71
2018-08-28T11:27:27.208Z,54.58
2018-08-28T11:28:27.211Z,53.81
2018-08-28T11:29:27.219Z,52.45
2018-08-28T11:30:27.217Z,53.81
2018-08-28T11:31:27.272Z,53.61
2018-08-28T11:32:27.231Z,53.06
2018-08-28T11:33:27.225Z,51.61
2018-08-28T11:34:27.227Z,51.71
2018-08-28T11:35:27.230Z,52.09
2018-08-28T11:36:27.236Z,51.59
2018-08-28T11:37:27.236Z,51.49
2018-08-28T11:38:27.308Z,52.65
2018-08-28T11:39:27.244Z,52.94
2018-08-28T11:40:27.249Z,53.23
2018-08-28T11:41:27.248Z,52.45
2018-08-28T11:42:27.255Z,51.78
2018-08-28T11:43:27.254Z,52.00
2018-08-28T11:44:27.265Z,52.67
2018-08-28T11:45:27.261Z,52.29
2018-08-28T11:46:27.266Z,51.71
2018-08-28T11:47:27.268Z,51.90
2018-08-28T11:48:27.269Z,51.51
2018-08-28T11:49:27.273Z,52.00
2018-08-28T11:50:27.274Z,51.90
2018-08-28T11:51:27.279Z,52.67
2018-08-28T11:52:27.309Z,51.42
2018-08-28T11:53:27.286Z,52.09
2018-08-28T11:54:27.291Z,52.09
2018-08-28T11:55:27.304Z,52.94
2018-08-28T11:56:27.295Z,52.26
2018-08-28T11:57:27.298Z,52.65
2018-08-28T11:58:27.296Z,52.62
2018-08-28T11:59:27.304Z,52.62
2018-08-28T12:00:27.308Z,52.72
2018-08-28T12:01:27.307Z,53.78
2018-08-28T12:02:27.313Z,53.69
2018-08-28T12:03:27.316Z,54.27
2018-08-28T12:04:27.318Z,54.46
2018-08-28T12:05:27.415Z,54.84
2018-08-28T12:06:27.322Z,55.23
2018-08-28T12:07:27.377Z,55.98
2018-08-28T12:08:27.330Z,55.49
2018-08-28T12:09:27.332Z,55.52
2018-08-28T12:10:27.334Z,55.68
2018-08-28T12:11:27.342Z,56.65
2018-08-28T12:12:27.347Z,56.65
2018-08-28T12:13:27.346Z,56.84
2018-08-28T12:14:27.346Z,56.68
2018-08-28T12:15:27.345Z,56.77
2018-08-28T12:16:27.356Z,56.48
2018-08-28T12:17:27.354Z,56.13
2018-08-28T12:18:27.356Z,55.74
2018-08-28T12:19:27.361Z,55.74
2018-08-28T12:20:27.414Z,55.65
2018-08-28T12:21:27.364Z,55.26
2018-08-28T12:22:27.365Z,55.77
2018-08-28T12:23:27.371Z,54.80
2018-08-28T12:24:27.375Z,54.51
2018-08-28T12:25:27.377Z,54.61
2018-08-28T12:26:27.380Z,54.97
2018-08-28T12:27:27.383Z,54.87
2018-08-28T12:28:27.388Z,55.26
2018-08-28T12:29:27.391Z,55.07
2018-08-28T12:30:27.393Z,55.07
2018-08-28T12:31:27.399Z,55.74
2018-08-28T12:32:27.398Z,55.62
2018-08-28T12:33:27.401Z,55.23
2018-08-28T12:34:27.404Z,55.16
2018-08-28T12:35:27.407Z,53.30
2018-08-28T12:36:27.410Z,53.30
2018-08-28T12:37:27.412Z,53.78
2018-08-28T12:38:27.416Z,53.01
2018-08-28T12:39:27.419Z,52.81
2018-08-28T12:40:27.458Z,53.01
2018-08-28T12:41:27.424Z,53.11
2018-08-28T12:42:27.428Z,53.39
2018-08-28T12:43:27.440Z,53.97
2018-08-28T12:44:27.433Z,53.23
2018-08-28T12:45:27.438Z,53.23
2018-08-28T12:46:27.440Z,53.13
2018-08-28T12:47:27.446Z,53.42
2018-08-28T12:48:27.448Z,54.00
2018-08-28T12:49:27.454Z,53.64
2018-08-28T12:50:27.450Z,53.91
2018-08-28T12:51:27.589Z,53.71
2018-08-28T12:52:27.454Z,53.64